sensor_id;sensor_type;location;lat;lon;timestamp;P1;durP1;ratioP1;P2;durP2;ratioP2
76155;SDS011;64906;51.290;7.348;2023-06-22T00:00:49;7.90;;;5.32;;
76155;SDS011;64906;51.290;7.348;2023-06-22T00:03:15;7.30;;;5.07;;
76155;SDS011;64906;51.290;7.348;2023-06-22T00:05:40;8.40;;;5.00;;
76155;SDS011;64906;51.290;7.348;2023-06-22T00:08:06;8.33;;;5.27;;
76155;SDS011;64906;51.290;7.348;2023-06-22T00:10:31;8.17;;;5.10;;
76155;SDS011;64906;51.290;7.348;2023-06-22T00:12:56;6.93;;;4.93;;
76155;SDS011;64906;51.290;7.348;2023-06-22T00:15:22;7.40;;;5.30;;
76155;SDS011;64906;51.290;7.348;2023-06-22T00:17:47;7.00;;;4.95;;
76155;SDS011;64906;51.290;7.348;2023-06-22T00:20:14;7.07;;;4.95;;
76155;SDS011;64906;51.290;7.348;2023-06-22T00:22:39;8.10;;;4.90;;
76155;SDS011;64906;51.290;7.348;2023-06-22T00:25:06;8.07;;;5.13;;
76155;SDS011;64906;51.290;7.348;2023-06-22T00:27:31;7.35;;;4.90;;
76155;SDS011;64906;51.290;7.348;2023-06-22T00:29:57;6.80;;;4.87;;
76155;SDS011;64906;51.290;7.348;2023-06-22T00:32:22;6.87;;;4.73;;
76155;SDS011;64906;51.290;7.348;2023-06-22T00:34:47;8.07;;;4.83;;
76155;SDS011;64906;51.290;7.348;2023-06-22T00:37:13;6.72;;;4.68;;
76155;SDS011;64906;51.290;7.348;2023-06-22T00:39:38;6.87;;;4.87;;
76155;SDS011;64906;51.290;7.348;2023-06-22T00:42:04;8.03;;;5.17;;
76155;SDS011;64906;51.290;7.348;2023-06-22T00:44:29;7.15;;;4.70;;
76155;SDS011;64906;51.290;7.348;2023-06-22T00:46:54;6.33;;;4.47;;
76155;SDS011;64906;51.290;7.348;2023-06-22T00:49:20;7.63;;;4.93;;
76155;SDS011;64906;51.290;7.348;2023-06-22T00:51:45;8.18;;;5.00;;
76155;SDS011;64906;51.290;7.348;2023-06-22T00:54:12;6.75;;;4.50;;
76155;SDS011;64906;51.290;7.348;2023-06-22T00:56:39;7.65;;;5.07;;
76155;SDS011;64906;51.290;7.348;2023-06-22T00:59:05;6.32;;;4.15;;
76155;SDS011;64906;51.290;7.348;2023-06-22T01:01:31;6.32;;;4.50;;
76155;SDS011;64906;51.290;7.348;2023-06-22T01:03:57;7.05;;;4.75;;
76155;SDS011;64906;51.290;7.348;2023-06-22T01:06:26;7.10;;;4.72;;
76155;SDS011;64906;51.290;7.348;2023-06-22T01:09:13;7.25;;;4.38;;
76155;SDS011;64906;51.290;7.348;2023-06-22T01:11:50;8.10;;;5.45;;
76155;SDS011;64906;51.290;7.348;2023-06-22T01:16:56;6.97;;;4.93;;
76155;SDS011;64906;51.290;7.348;2023-06-22T01:22:06;7.60;;;5.07;;
76155;SDS011;64906;51.290;7.348;2023-06-22T01:24:50;6.85;;;4.30;;
76155;SDS011;64906;51.290;7.348;2023-06-22T01:30:10;6.82;;;4.25;;
76155;SDS011;64906;51.290;7.348;2023-06-22T01:32:38;7.07;;;4.80;;
76155;SDS011;64906;51.290;7.348;2023-06-22T01:35:06;7.05;;;4.78;;
76155;SDS011;64906;51.290;7.348;2023-06-22T01:37:33;7.55;;;4.55;;
76155;SDS011;64906;51.290;7.348;2023-06-22T01:39:59;7.50;;;4.82;;
76155;SDS011;64906;51.290;7.348;2023-06-22T01:42:25;6.38;;;4.30;;
76155;SDS011;64906;51.290;7.348;2023-06-22T01:44:52;8.50;;;4.68;;
76155;SDS011;64906;51.290;7.348;2023-06-22T01:47:17;8.45;;;4.95;;
76155;SDS011;64906;51.290;7.348;2023-06-22T01:49:44;8.30;;;4.95;;
76155;SDS011;64906;51.290;7.348;2023-06-22T01:52:10;7.32;;;4.45;;
76155;SDS011;64906;51.290;7.348;2023-06-22T01:54:36;6.18;;;4.40;;
76155;SDS011;64906;51.290;7.348;2023-06-22T01:57:02;6.40;;;4.32;;
76155;SDS011;64906;51.290;7.348;2023-06-22T01:59:36;7.22;;;4.60;;
76155;SDS011;64906;51.290;7.348;2023-06-22T02:02:08;6.55;;;4.47;;
76155;SDS011;64906;51.290;7.348;2023-06-22T02:04:55;6.50;;;4.35;;
76155;SDS011;64906;51.290;7.348;2023-06-22T02:07:23;7.03;;;4.25;;
76155;SDS011;64906;51.290;7.348;2023-06-22T02:12:22;6.45;;;4.40;;
76155;SDS011;64906;51.290;7.348;2023-06-22T02:14:50;7.85;;;4.55;;
76155;SDS011;64906;51.290;7.348;2023-06-22T02:17:17;6.38;;;4.57;;
76155;SDS011;64906;51.290;7.348;2023-06-22T02:19:47;6.57;;;3.85;;
76155;SDS011;64906;51.290;7.348;2023-06-22T02:22:12;6.97;;;4.32;;
76155;SDS011;64906;51.290;7.348;2023-06-22T02:24:38;7.50;;;4.68;;
76155;SDS011;64906;51.290;7.348;2023-06-22T02:27:04;7.05;;;4.53;;
76155;SDS011;64906;51.290;7.348;2023-06-22T02:29:31;7.85;;;4.70;;
76155;SDS011;64906;51.290;7.348;2023-06-22T02:31:57;6.77;;;4.60;;
76155;SDS011;64906;51.290;7.348;2023-06-22T02:34:22;6.75;;;4.28;;
76155;SDS011;64906;51.290;7.348;2023-06-22T02:36:48;8.03;;;5.07;;
76155;SDS011;64906;51.290;7.348;2023-06-22T02:39:18;6.30;;;4.28;;
76155;SDS011;64906;51.290;7.348;2023-06-22T02:41:52;7.07;;;4.35;;
76155;SDS011;64906;51.290;7.348;2023-06-22T02:44:18;8.27;;;4.22;;
76155;SDS011;64906;51.290;7.348;2023-06-22T02:46:44;6.35;;;4.22;;
76155;SDS011;64906;51.290;7.348;2023-06-22T02:49:09;6.80;;;4.43;;
76155;SDS011;64906;51.290;7.348;2023-06-22T02:51:37;6.88;;;4.50;;
76155;SDS011;64906;51.290;7.348;2023-06-22T02:54:04;7.28;;;4.43;;
76155;SDS011;64906;51.290;7.348;2023-06-22T02:56:29;6.78;;;4.75;;
76155;SDS011;64906;51.290;7.348;2023-06-22T02:58:55;10.35;;;4.60;;
76155;SDS011;64906;51.290;7.348;2023-06-22T03:01:25;8.25;;;4.53;;
76155;SDS011;64906;51.290;7.348;2023-06-22T03:03:52;7.70;;;4.78;;
76155;SDS011;64906;51.290;7.348;2023-06-22T03:06:18;6.85;;;4.28;;
76155;SDS011;64906;51.290;7.348;2023-06-22T03:08:49;6.40;;;4.38;;
76155;SDS011;64906;51.290;7.348;2023-06-22T03:11:15;7.30;;;4.28;;
76155;SDS011;64906;51.290;7.348;2023-06-22T03:13:40;7.25;;;4.82;;
76155;SDS011;64906;51.290;7.348;2023-06-22T03:16:05;7.17;;;4.50;;
76155;SDS011;64906;51.290;7.348;2023-06-22T03:18:31;7.40;;;4.77;;
76155;SDS011;64906;51.290;7.348;2023-06-22T03:20:56;7.10;;;4.30;;
76155;SDS011;64906;51.290;7.348;2023-06-22T03:23:21;7.20;;;4.82;;
76155;SDS011;64906;51.290;7.348;2023-06-22T03:25:47;6.07;;;4.23;;
76155;SDS011;64906;51.290;7.348;2023-06-22T03:28:12;7.43;;;4.70;;
76155;SDS011;64906;51.290;7.348;2023-06-22T03:30:37;7.70;;;4.50;;
76155;SDS011;64906;51.290;7.348;2023-06-22T03:33:02;8.10;;;4.27;;
76155;SDS011;64906;51.290;7.348;2023-06-22T03:35:28;7.17;;;4.80;;
76155;SDS011;64906;51.290;7.348;2023-06-22T03:37:53;5.97;;;4.23;;
76155;SDS011;64906;51.290;7.348;2023-06-22T03:40:18;8.03;;;4.63;;
76155;SDS011;64906;51.290;7.348;2023-06-22T03:42:44;9.85;;;5.15;;
76155;SDS011;64906;51.290;7.348;2023-06-22T03:45:10;7.25;;;4.68;;
76155;SDS011;64906;51.290;7.348;2023-06-22T03:47:36;7.20;;;4.45;;
76155;SDS011;64906;51.290;7.348;2023-06-22T03:50:01;7.23;;;4.70;;
76155;SDS011;64906;51.290;7.348;2023-06-22T03:52:28;6.82;;;4.78;;
76155;SDS011;64906;51.290;7.348;2023-06-22T03:54:53;8.02;;;5.00;;
76155;SDS011;64906;51.290;7.348;2023-06-22T03:57:19;7.00;;;4.90;;
76155;SDS011;64906;51.290;7.348;2023-06-22T03:59:44;7.77;;;4.83;;
76155;SDS011;64906;51.290;7.348;2023-06-22T04:02:09;7.47;;;4.83;;
76155;SDS011;64906;51.290;7.348;2023-06-22T04:04:35;7.80;;;4.73;;
76155;SDS011;64906;51.290;7.348;2023-06-22T04:07:00;8.37;;;5.40;;
76155;SDS011;64906;51.290;7.348;2023-06-22T04:09:25;7.10;;;4.93;;
76155;SDS011;64906;51.290;7.348;2023-06-22T04:11:51;7.07;;;4.80;;
76155;SDS011;64906;51.290;7.348;2023-06-22T04:14:17;8.88;;;5.03;;
76155;SDS011;64906;51.290;7.348;2023-06-22T04:16:42;8.17;;;4.73;;
76155;SDS011;64906;51.290;7.348;2023-06-22T04:19:07;7.07;;;4.78;;
76155;SDS011;64906;51.290;7.348;2023-06-22T04:21:38;7.45;;;4.93;;
76155;SDS011;64906;51.290;7.348;2023-06-22T04:24:03;10.00;;;4.80;;
76155;SDS011;64906;51.290;7.348;2023-06-22T04:26:28;8.65;;;4.85;;
76155;SDS011;64906;51.290;7.348;2023-06-22T04:28:54;9.13;;;5.10;;
76155;SDS011;64906;51.290;7.348;2023-06-22T04:31:20;8.32;;;5.18;;
76155;SDS011;64906;51.290;7.348;2023-06-22T04:33:46;9.45;;;4.93;;
76155;SDS011;64906;51.290;7.348;2023-06-22T04:36:11;8.63;;;4.80;;
76155;SDS011;64906;51.290;7.348;2023-06-22T04:38:39;8.10;;;4.90;;
76155;SDS011;64906;51.290;7.348;2023-06-22T04:41:05;8.77;;;4.97;;
76155;SDS011;64906;51.290;7.348;2023-06-22T04:43:31;8.90;;;5.47;;
76155;SDS011;64906;51.290;7.348;2023-06-22T04:45:57;8.77;;;5.50;;
76155;SDS011;64906;51.290;7.348;2023-06-22T04:48:28;9.20;;;5.22;;
76155;SDS011;64906;51.290;7.348;2023-06-22T04:50:57;8.43;;;5.45;;
76155;SDS011;64906;51.290;7.348;2023-06-22T04:53:28;8.57;;;5.43;;
76155;SDS011;64906;51.290;7.348;2023-06-22T04:55:54;9.85;;;5.68;;
76155;SDS011;64906;51.290;7.348;2023-06-22T04:58:20;8.48;;;5.32;;
76155;SDS011;64906;51.290;7.348;2023-06-22T05:00:46;7.55;;;5.03;;
76155;SDS011;64906;51.290;7.348;2023-06-22T05:03:12;9.02;;;4.97;;
76155;SDS011;64906;51.290;7.348;2023-06-22T05:05:37;10.13;;;5.30;;
76155;SDS011;64906;51.290;7.348;2023-06-22T05:08:03;7.55;;;4.78;;
76155;SDS011;64906;51.290;7.348;2023-06-22T05:10:31;10.25;;;5.55;;
76155;SDS011;64906;51.290;7.348;2023-06-22T05:12:57;10.32;;;6.22;;
76155;SDS011;64906;51.290;7.348;2023-06-22T05:15:22;8.73;;;5.37;;
76155;SDS011;64906;51.290;7.348;2023-06-22T05:17:51;9.40;;;5.57;;
76155;SDS011;64906;51.290;7.348;2023-06-22T05:20:17;8.45;;;5.13;;
76155;SDS011;64906;51.290;7.348;2023-06-22T05:22:43;9.02;;;5.30;;
76155;SDS011;64906;51.290;7.348;2023-06-22T05:25:09;10.63;;;5.80;;
76155;SDS011;64906;51.290;7.348;2023-06-22T05:27:36;9.43;;;5.22;;
76155;SDS011;64906;51.290;7.348;2023-06-22T05:30:05;7.97;;;5.15;;
76155;SDS011;64906;51.290;7.348;2023-06-22T05:32:31;8.45;;;5.20;;
76155;SDS011;64906;51.290;7.348;2023-06-22T05:34:57;10.65;;;5.13;;
76155;SDS011;64906;51.290;7.348;2023-06-22T05:37:22;8.23;;;4.93;;
76155;SDS011;64906;51.290;7.348;2023-06-22T05:39:47;10.20;;;5.72;;
76155;SDS011;64906;51.290;7.348;2023-06-22T05:42:13;14.90;;;8.30;;
76155;SDS011;64906;51.290;7.348;2023-06-22T05:44:38;13.00;;;7.40;;
76155;SDS011;64906;51.290;7.348;2023-06-22T05:47:05;14.07;;;7.28;;
76155;SDS011;64906;51.290;7.348;2023-06-22T05:49:31;14.32;;;6.82;;
76155;SDS011;64906;51.290;7.348;2023-06-22T05:51:57;13.02;;;7.90;;
76155;SDS011;64906;51.290;7.348;2023-06-22T05:54:24;18.75;;;9.32;;
76155;SDS011;64906;51.290;7.348;2023-06-22T05:56:49;15.37;;;8.27;;
76155;SDS011;64906;51.290;7.348;2023-06-22T05:59:15;23.13;;;11.60;;
76155;SDS011;64906;51.290;7.348;2023-06-22T06:01:40;17.97;;;9.57;;
76155;SDS011;64906;51.290;7.348;2023-06-22T06:04:05;13.97;;;7.90;;
76155;SDS011;64906;51.290;7.348;2023-06-22T06:06:33;16.13;;;8.02;;
76155;SDS011;64906;51.290;7.348;2023-06-22T06:09:02;14.98;;;7.07;;
76155;SDS011;64906;51.290;7.348;2023-06-22T06:11:28;12.18;;;6.70;;
76155;SDS011;64906;51.290;7.348;2023-06-22T06:13:53;12.07;;;6.63;;
76155;SDS011;64906;51.290;7.348;2023-06-22T06:16:19;18.20;;;7.07;;
76155;SDS011;64906;51.290;7.348;2023-06-22T06:18:45;15.82;;;6.82;;
76155;SDS011;64906;51.290;7.348;2023-06-22T06:21:10;14.00;;;7.20;;
76155;SDS011;64906;51.290;7.348;2023-06-22T06:23:35;11.67;;;6.40;;
76155;SDS011;64906;51.290;7.348;2023-06-22T06:26:01;12.70;;;6.53;;
76155;SDS011;64906;51.290;7.348;2023-06-22T06:28:26;12.95;;;7.20;;
76155;SDS011;64906;51.290;7.348;2023-06-22T06:30:52;15.13;;;6.97;;
76155;SDS011;64906;51.290;7.348;2023-06-22T06:33:17;15.20;;;6.50;;
76155;SDS011;64906;51.290;7.348;2023-06-22T06:35:42;14.67;;;7.00;;
76155;SDS011;64906;51.290;7.348;2023-06-22T06:38:08;13.93;;;6.87;;
76155;SDS011;64906;51.290;7.348;2023-06-22T06:40:33;13.90;;;6.00;;
76155;SDS011;64906;51.290;7.348;2023-06-22T06:42:58;12.37;;;6.33;;
76155;SDS011;64906;51.290;7.348;2023-06-22T06:45:24;12.30;;;6.97;;
76155;SDS011;64906;51.290;7.348;2023-06-22T06:47:50;13.60;;;7.57;;
76155;SDS011;64906;51.290;7.348;2023-06-22T06:50:17;13.40;;;6.90;;
76155;SDS011;64906;51.290;7.348;2023-06-22T06:52:43;12.07;;;6.68;;
76155;SDS011;64906;51.290;7.348;2023-06-22T06:55:08;16.25;;;7.38;;
76155;SDS011;64906;51.290;7.348;2023-06-22T06:57:37;13.40;;;6.80;;
76155;SDS011;64906;51.290;7.348;2023-06-22T07:00:06;12.25;;;6.55;;
76155;SDS011;64906;51.290;7.348;2023-06-22T07:02:37;13.88;;;7.53;;
76155;SDS011;64906;51.290;7.348;2023-06-22T07:05:04;15.23;;;6.55;;
76155;SDS011;64906;51.290;7.348;2023-06-22T07:07:30;16.38;;;7.10;;
76155;SDS011;64906;51.290;7.348;2023-06-22T07:09:55;17.83;;;7.70;;
76155;SDS011;64906;51.290;7.348;2023-06-22T07:12:21;15.82;;;7.13;;
76155;SDS011;64906;51.290;7.348;2023-06-22T07:14:46;14.60;;;7.22;;
76155;SDS011;64906;51.290;7.348;2023-06-22T07:17:11;16.83;;;7.80;;
76155;SDS011;64906;51.290;7.348;2023-06-22T07:19:37;15.45;;;7.43;;
76155;SDS011;64906;51.290;7.348;2023-06-22T07:22:02;16.55;;;7.63;;
76155;SDS011;64906;51.290;7.348;2023-06-22T07:24:28;14.55;;;6.85;;
76155;SDS011;64906;51.290;7.348;2023-06-22T07:26:53;12.60;;;6.73;;
76155;SDS011;64906;51.290;7.348;2023-06-22T07:29:19;11.50;;;7.05;;
76155;SDS011;64906;51.290;7.348;2023-06-22T07:31:46;13.77;;;6.53;;
76155;SDS011;64906;51.290;7.348;2023-06-22T07:34:12;11.25;;;6.63;;
76155;SDS011;64906;51.290;7.348;2023-06-22T07:36:38;14.80;;;7.32;;
76155;SDS011;64906;51.290;7.348;2023-06-22T07:39:03;16.63;;;7.35;;
76155;SDS011;64906;51.290;7.348;2023-06-22T07:41:29;12.57;;;7.05;;
76155;SDS011;64906;51.290;7.348;2023-06-22T07:43:55;15.57;;;7.90;;
76155;SDS011;64906;51.290;7.348;2023-06-22T07:46:20;13.27;;;8.00;;
76155;SDS011;64906;51.290;7.348;2023-06-22T07:48:46;19.83;;;7.78;;
76155;SDS011;64906;51.290;7.348;2023-06-22T07:51:11;12.53;;;7.27;;
76155;SDS011;64906;51.290;7.348;2023-06-22T07:53:43;13.73;;;7.03;;
76155;SDS011;64906;51.290;7.348;2023-06-22T07:56:11;14.70;;;7.28;;
76155;SDS011;64906;51.290;7.348;2023-06-22T07:58:38;16.23;;;8.35;;
76155;SDS011;64906;51.290;7.348;2023-06-22T08:01:03;18.42;;;8.80;;
76155;SDS011;64906;51.290;7.348;2023-06-22T08:03:29;19.45;;;8.40;;
76155;SDS011;64906;51.290;7.348;2023-06-22T08:05:54;14.15;;;7.82;;
76155;SDS011;64906;51.290;7.348;2023-06-22T08:08:20;34.97;;;23.15;;
76155;SDS011;64906;51.290;7.348;2023-06-22T08:10:45;239.82;;;189.07;;
76155;SDS011;64906;51.290;7.348;2023-06-22T08:13:10;392.40;;;330.10;;
76155;SDS011;64906;51.290;7.348;2023-06-22T08:15:36;480.77;;;398.58;;
76155;SDS011;64906;51.290;7.348;2023-06-22T08:18:01;471.63;;;387.70;;
76155;SDS011;64906;51.290;7.348;2023-06-22T08:20:27;445.30;;;371.53;;
76155;SDS011;64906;51.290;7.348;2023-06-22T08:22:53;403.20;;;335.20;;
76155;SDS011;64906;51.290;7.348;2023-06-22T08:25:19;377.45;;;315.73;;
76155;SDS011;64906;51.290;7.348;2023-06-22T08:27:45;337.85;;;282.20;;
76155;SDS011;64906;51.290;7.348;2023-06-22T08:30:12;309.20;;;250.10;;
76155;SDS011;64906;51.290;7.348;2023-06-22T08:32:38;286.00;;;233.27;;
76155;SDS011;64906;51.290;7.348;2023-06-22T08:35:03;267.70;;;213.97;;
76155;SDS011;64906;51.290;7.348;2023-06-22T08:37:30;226.35;;;174.35;;
76155;SDS011;64906;51.290;7.348;2023-06-22T08:39:57;207.40;;;149.90;;
76155;SDS011;64906;51.290;7.348;2023-06-22T08:42:24;215.27;;;156.57;;
76155;SDS011;64906;51.290;7.348;2023-06-22T08:44:50;158.85;;;116.55;;
76155;SDS011;64906;51.290;7.348;2023-06-22T08:47:16;165.15;;;123.78;;
76155;SDS011;64906;51.290;7.348;2023-06-22T08:49:41;187.05;;;140.88;;
76155;SDS011;64906;51.290;7.348;2023-06-22T08:52:07;186.30;;;137.20;;
76155;SDS011;64906;51.290;7.348;2023-06-22T08:54:32;188.68;;;139.25;;
76155;SDS011;64906;51.290;7.348;2023-06-22T08:56:59;182.10;;;130.98;;
76155;SDS011;64906;51.290;7.348;2023-06-22T08:59:25;165.82;;;121.63;;
76155;SDS011;64906;51.290;7.348;2023-06-22T09:01:50;151.53;;;110.67;;
76155;SDS011;64906;51.290;7.348;2023-06-22T09:04:15;131.70;;;92.90;;
76155;SDS011;64906;51.290;7.348;2023-06-22T09:06:41;110.97;;;79.40;;
76155;SDS011;64906;51.290;7.348;2023-06-22T09:09:12;102.28;;;70.65;;
76155;SDS011;64906;51.290;7.348;2023-06-22T09:11:38;113.60;;;81.05;;
76155;SDS011;64906;51.290;7.348;2023-06-22T09:14:03;90.00;;;62.57;;
76155;SDS011;64906;51.290;7.348;2023-06-22T09:16:29;85.10;;;59.92;;
76155;SDS011;64906;51.290;7.348;2023-06-22T09:18:54;97.38;;;65.55;;
76155;SDS011;64906;51.290;7.348;2023-06-22T09:21:20;73.17;;;52.77;;
76155;SDS011;64906;51.290;7.348;2023-06-22T09:23:45;82.00;;;55.30;;
76155;SDS011;64906;51.290;7.348;2023-06-22T09:26:15;65.20;;;48.55;;
76155;SDS011;64906;51.290;7.348;2023-06-22T09:28:40;75.53;;;55.00;;
76155;SDS011;64906;51.290;7.348;2023-06-22T09:31:05;75.77;;;55.93;;
76155;SDS011;64906;51.290;7.348;2023-06-22T09:33:31;89.70;;;65.68;;
76155;SDS011;64906;51.290;7.348;2023-06-22T09:35:57;97.00;;;73.27;;
76155;SDS011;64906;51.290;7.348;2023-06-22T09:38:22;93.57;;;72.23;;
76155;SDS011;64906;51.290;7.348;2023-06-22T09:40:47;104.32;;;77.32;;
76155;SDS011;64906;51.290;7.348;2023-06-22T09:43:13;95.68;;;74.65;;
76155;SDS011;64906;51.290;7.348;2023-06-22T09:45:38;89.53;;;67.82;;
76155;SDS011;64906;51.290;7.348;2023-06-22T09:48:04;104.67;;;78.87;;
76155;SDS011;64906;51.290;7.348;2023-06-22T09:50:29;141.02;;;102.30;;
76155;SDS011;64906;51.290;7.348;2023-06-22T09:52:54;130.60;;;99.03;;
76155;SDS011;64906;51.290;7.348;2023-06-22T09:55:20;125.13;;;95.10;;
76155;SDS011;64906;51.290;7.348;2023-06-22T09:57:46;128.02;;;96.78;;
76155;SDS011;64906;51.290;7.348;2023-06-22T10:00:12;129.97;;;99.23;;
76155;SDS011;64906;51.290;7.348;2023-06-22T10:02:39;130.70;;;96.70;;
76155;SDS011;64906;51.290;7.348;2023-06-22T10:05:04;122.85;;;92.20;;
76155;SDS011;64906;51.290;7.348;2023-06-22T10:07:30;119.57;;;90.75;;
76155;SDS011;64906;51.290;7.348;2023-06-22T10:09:55;123.83;;;92.63;;
76155;SDS011;64906;51.290;7.348;2023-06-22T10:12:20;115.40;;;88.83;;
76155;SDS011;64906;51.290;7.348;2023-06-22T10:14:46;115.33;;;87.70;;
76155;SDS011;64906;51.290;7.348;2023-06-22T10:17:11;114.87;;;88.97;;
76155;SDS011;64906;51.290;7.348;2023-06-22T10:19:37;109.38;;;85.03;;
76155;SDS011;64906;51.290;7.348;2023-06-22T10:22:04;109.88;;;84.53;;
76155;SDS011;64906;51.290;7.348;2023-06-22T10:24:30;109.65;;;83.13;;
76155;SDS011;64906;51.290;7.348;2023-06-22T10:26:55;111.33;;;86.50;;
76155;SDS011;64906;51.290;7.348;2023-06-22T10:29:20;106.83;;;81.33;;
76155;SDS011;64906;51.290;7.348;2023-06-22T10:31:46;105.90;;;80.00;;
76155;SDS011;64906;51.290;7.348;2023-06-22T10:34:11;106.60;;;79.53;;
76155;SDS011;64906;51.290;7.348;2023-06-22T10:36:36;104.95;;;84.38;;
76155;SDS011;64906;51.290;7.348;2023-06-22T10:39:02;101.22;;;75.57;;
76155;SDS011;64906;51.290;7.348;2023-06-22T10:41:27;97.85;;;77.15;;
76155;SDS011;64906;51.290;7.348;2023-06-22T10:43:55;101.57;;;79.50;;
76155;SDS011;64906;51.290;7.348;2023-06-22T10:46:20;98.97;;;74.43;;
76155;SDS011;64906;51.290;7.348;2023-06-22T10:48:46;96.67;;;75.13;;
76155;SDS011;64906;51.290;7.348;2023-06-22T10:51:11;94.63;;;73.03;;
76155;SDS011;64906;51.290;7.348;2023-06-22T10:53:36;91.88;;;70.90;;
76155;SDS011;64906;51.290;7.348;2023-06-22T10:56:02;93.87;;;70.40;;
76155;SDS011;64906;51.290;7.348;2023-06-22T10:58:27;91.77;;;67.63;;
76155;SDS011;64906;51.290;7.348;2023-06-22T11:00:52;87.07;;;66.10;;
76155;SDS011;64906;51.290;7.348;2023-06-22T11:03:17;85.63;;;67.07;;
76155;SDS011;64906;51.290;7.348;2023-06-22T11:05:43;92.80;;;69.95;;
76155;SDS011;64906;51.290;7.348;2023-06-22T11:08:08;89.87;;;69.80;;
76155;SDS011;64906;51.290;7.348;2023-06-22T11:10:33;97.93;;;71.90;;
76155;SDS011;64906;51.290;7.348;2023-06-22T11:12:59;95.17;;;73.97;;
76155;SDS011;64906;51.290;7.348;2023-06-22T11:15:24;92.77;;;67.03;;
76155;SDS011;64906;51.290;7.348;2023-06-22T11:17:50;92.78;;;69.65;;
76155;SDS011;64906;51.290;7.348;2023-06-22T11:20:15;97.43;;;68.57;;
76155;SDS011;64906;51.290;7.348;2023-06-22T11:22:41;121.28;;;82.40;;
76155;SDS011;64906;51.290;7.348;2023-06-22T11:25:07;132.73;;;88.35;;
76155;SDS011;64906;51.290;7.348;2023-06-22T11:27:33;118.28;;;83.28;;
76155;SDS011;64906;51.290;7.348;2023-06-22T11:29:59;114.85;;;76.50;;
76155;SDS011;64906;51.290;7.348;2023-06-22T11:32:26;118.07;;;79.63;;
76155;SDS011;64906;51.290;7.348;2023-06-22T11:34:52;111.78;;;76.30;;
76155;SDS011;64906;51.290;7.348;2023-06-22T11:37:17;121.82;;;80.53;;
76155;SDS011;64906;51.290;7.348;2023-06-22T11:39:43;111.20;;;74.10;;
76155;SDS011;64906;51.290;7.348;2023-06-22T11:42:11;100.40;;;67.70;;
76155;SDS011;64906;51.290;7.348;2023-06-22T11:44:36;96.07;;;62.78;;
76155;SDS011;64906;51.290;7.348;2023-06-22T11:47:02;93.32;;;60.88;;
76155;SDS011;64906;51.290;7.348;2023-06-22T11:49:30;87.57;;;57.55;;
76155;SDS011;64906;51.290;7.348;2023-06-22T11:51:55;84.57;;;56.97;;
76155;SDS011;64906;51.290;7.348;2023-06-22T11:54:21;74.88;;;50.38;;
76155;SDS011;64906;51.290;7.348;2023-06-22T11:56:46;70.28;;;47.67;;
76155;SDS011;64906;51.290;7.348;2023-06-22T11:59:12;67.77;;;46.57;;
76155;SDS011;64906;51.290;7.348;2023-06-22T12:01:37;67.67;;;45.27;;
76155;SDS011;64906;51.290;7.348;2023-06-22T12:04:02;74.30;;;47.77;;
76155;SDS011;64906;51.290;7.348;2023-06-22T12:06:30;85.13;;;52.58;;
76155;SDS011;64906;51.290;7.348;2023-06-22T12:09:03;80.05;;;48.90;;
76155;SDS011;64906;51.290;7.348;2023-06-22T12:11:29;77.63;;;48.15;;
76155;SDS011;64906;51.290;7.348;2023-06-22T12:13:54;75.25;;;46.30;;
76155;SDS011;64906;51.290;7.348;2023-06-22T12:16:20;66.10;;;40.20;;
76155;SDS011;64906;51.290;7.348;2023-06-22T12:18:46;56.30;;;36.22;;
76155;SDS011;64906;51.290;7.348;2023-06-22T12:21:12;57.70;;;35.53;;
76155;SDS011;64906;51.290;7.348;2023-06-22T12:23:37;47.63;;;30.83;;
76155;SDS011;64906;51.290;7.348;2023-06-22T12:26:03;45.43;;;27.67;;
76155;SDS011;64906;51.290;7.348;2023-06-22T12:28:28;42.77;;;26.87;;
76155;SDS011;64906;51.290;7.348;2023-06-22T12:30:53;39.80;;;23.80;;
76155;SDS011;64906;51.290;7.348;2023-06-22T12:33:18;42.73;;;23.23;;
76155;SDS011;64906;51.290;7.348;2023-06-22T12:35:44;35.63;;;21.40;;
76155;SDS011;64906;51.290;7.348;2023-06-22T12:38:10;33.20;;;23.27;;
76155;SDS011;64906;51.290;7.348;2023-06-22T12:40:36;37.10;;;24.20;;
76155;SDS011;64906;51.290;7.348;2023-06-22T12:43:01;36.73;;;24.87;;
76155;SDS011;64906;51.290;7.348;2023-06-22T12:45:27;35.03;;;23.48;;
76155;SDS011;64906;51.290;7.348;2023-06-22T12:47:54;34.28;;;22.30;;
76155;SDS011;64906;51.290;7.348;2023-06-22T12:50:19;37.13;;;22.70;;
76155;SDS011;64906;51.290;7.348;2023-06-22T12:52:45;31.90;;;21.23;;
76155;SDS011;64906;51.290;7.348;2023-06-22T12:55:10;32.40;;;20.23;;
76155;SDS011;64906;51.290;7.348;2023-06-22T12:57:36;29.33;;;19.42;;
76155;SDS011;64906;51.290;7.348;2023-06-22T13:00:01;30.10;;;19.13;;
76155;SDS011;64906;51.290;7.348;2023-06-22T13:02:27;28.42;;;18.67;;
76155;SDS011;64906;51.290;7.348;2023-06-22T13:04:53;29.67;;;18.13;;
76155;SDS011;64906;51.290;7.348;2023-06-22T13:07:18;29.35;;;16.98;;
76155;SDS011;64906;51.290;7.348;2023-06-22T13:09:43;25.40;;;17.43;;
76155;SDS011;64906;51.290;7.348;2023-06-22T13:12:11;26.67;;;16.77;;
76155;SDS011;64906;51.290;7.348;2023-06-22T13:14:36;22.40;;;15.90;;
76155;SDS011;64906;51.290;7.348;2023-06-22T13:17:02;23.53;;;15.53;;
76155;SDS011;64906;51.290;7.348;2023-06-22T13:19:27;22.52;;;16.08;;
76155;SDS011;64906;51.290;7.348;2023-06-22T13:21:57;22.52;;;14.57;;
76155;SDS011;64906;51.290;7.348;2023-06-22T13:24:22;21.13;;;13.75;;
76155;SDS011;64906;51.290;7.348;2023-06-22T13:26:47;20.85;;;14.25;;
76155;SDS011;64906;51.290;7.348;2023-06-22T13:29:13;20.70;;;13.77;;
76155;SDS011;64906;51.290;7.348;2023-06-22T13:31:38;22.07;;;13.60;;
76155;SDS011;64906;51.290;7.348;2023-06-22T13:34:03;20.13;;;13.77;;
76155;SDS011;64906;51.290;7.348;2023-06-22T13:36:29;19.67;;;12.70;;
76155;SDS011;64906;51.290;7.348;2023-06-22T13:38:55;25.80;;;18.00;;
76155;SDS011;64906;51.290;7.348;2023-06-22T13:41:21;52.78;;;36.60;;
76155;SDS011;64906;51.290;7.348;2023-06-22T13:43:46;56.80;;;38.43;;
76155;SDS011;64906;51.290;7.348;2023-06-22T13:46:11;55.43;;;34.43;;
76155;SDS011;64906;51.290;7.348;2023-06-22T13:48:37;53.60;;;34.27;;
76155;SDS011;64906;51.290;7.348;2023-06-22T13:51:02;51.25;;;32.30;;
76155;SDS011;64906;51.290;7.348;2023-06-22T13:53:27;48.38;;;31.75;;
76155;SDS011;64906;51.290;7.348;2023-06-22T13:55:53;48.57;;;32.03;;
76155;SDS011;64906;51.290;7.348;2023-06-22T13:58:18;47.10;;;33.17;;
76155;SDS011;64906;51.290;7.348;2023-06-22T14:00:44;55.78;;;37.47;;
76155;SDS011;64906;51.290;7.348;2023-06-22T14:03:10;65.15;;;41.25;;
76155;SDS011;64906;51.290;7.348;2023-06-22T14:05:35;62.77;;;39.20;;
76155;SDS011;64906;51.290;7.348;2023-06-22T14:08:01;54.77;;;36.63;;
76155;SDS011;64906;51.290;7.348;2023-06-22T14:10:26;49.55;;;33.22;;
76155;SDS011;64906;51.290;7.348;2023-06-22T14:12:51;54.60;;;32.95;;
76155;SDS011;64906;51.290;7.348;2023-06-22T14:15:18;37.67;;;25.77;;
76155;SDS011;64906;51.290;7.348;2023-06-22T14:17:43;36.17;;;23.30;;
76155;SDS011;64906;51.290;7.348;2023-06-22T14:20:08;30.17;;;21.07;;
76155;SDS011;64906;51.290;7.348;2023-06-22T14:22:34;28.15;;;19.75;;
76155;SDS011;64906;51.290;7.348;2023-06-22T14:25:00;30.42;;;19.83;;
76155;SDS011;64906;51.290;7.348;2023-06-22T14:27:26;27.33;;;17.98;;
76155;SDS011;64906;51.290;7.348;2023-06-22T14:29:52;21.02;;;15.88;;
76155;SDS011;64906;51.290;7.348;2023-06-22T14:32:17;24.03;;;15.83;;
76155;SDS011;64906;51.290;7.348;2023-06-22T14:34:42;20.00;;;14.07;;